Terminal Aerodrome Forecast
Issued by NWS

Home | Current Version | Previous Version | Text Only | Print | Product List | Glossary On
Versions: 1 2 3 4 5 6 7 8 9 10 11 12 13 14 15 16 17 18 19 20 21 22 23 24 25 26 27 28 29
388
FTUS43 KLOT 242323
TAFDPA
TAF
KDPA 242323Z 2500/2524 30009KT 4SM BR OVC006
      TEMPO 2500/2502 2SM -DZ BR OVC003
     FM250400 28011G18KT P6SM OVC008
     FM250600 29012G18KT 4SM BR VCSH OVC008
      TEMPO 2506/2508 1 1/2SM -RASN BR
     FM250800 30014G21KT 2SM -SN BR OVC015
     FM251200 30016G24KT 4SM -SN BR OVC015 PROB30 2512/2515 2SM -SN
      BR OVC007
     FM251600 29015G23KT P6SM OVC020
     FM252300 29012G18KT P6SM BKN035=

USA.gov is the U.S. government's official web portal to all federal, state and local government web resources and services.